sensor_id;sensor_type;location;lat;lon;timestamp;temperature;humidity
18779;DHT22;9518;51.720;14.384;2023-03-04T00:01:34;1.90;99.90
18779;DHT22;9518;51.720;14.384;2023-03-04T00:04:01;2.00;99.90
18779;DHT22;9518;51.720;14.384;2023-03-04T00:06:28;2.00;99.90
18779;DHT22;9518;51.720;14.384;2023-03-04T00:08:55;2.00;99.90
18779;DHT22;9518;51.720;14.384;2023-03-04T00:11:23;2.00;99.90
18779;DHT22;9518;51.720;14.384;2023-03-04T00:13:50;2.00;99.90
18779;DHT22;9518;51.720;14.384;2023-03-04T00:16:17;2.00;99.90
18779;DHT22;9518;51.720;14.384;2023-03-04T00:18:45;2.00;99.90
18779;DHT22;9518;51.720;14.384;2023-03-04T00:21:12;2.00;99.90
18779;DHT22;9518;51.720;14.384;2023-03-04T00:23:39;2.00;99.90
18779;DHT22;9518;51.720;14.384;2023-03-04T00:26:08;2.00;99.90
18779;DHT22;9518;51.720;14.384;2023-03-04T00:28:35;2.00;99.90
18779;DHT22;9518;51.720;14.384;2023-03-04T00:31:03;2.00;99.90
18779;DHT22;9518;51.720;14.384;2023-03-04T00:33:30;2.00;99.90
18779;DHT22;9518;51.720;14.384;2023-03-04T00:35:59;2.00;99.90
18779;DHT22;9518;51.720;14.384;2023-03-04T00:38:26;2.00;99.90
18779;DHT22;9518;51.720;14.384;2023-03-04T00:40:53;2.00;99.90
18779;DHT22;9518;51.720;14.384;2023-03-04T00:43:21;2.00;99.90
18779;DHT22;9518;51.720;14.384;2023-03-04T00:45:48;2.10;99.90
18779;DHT22;9518;51.720;14.384;2023-03-04T00:48:15;2.00;99.90
18779;DHT22;9518;51.720;14.384;2023-03-04T00:50:43;2.00;99.90
18779;DHT22;9518;51.720;14.384;2023-03-04T00:53:11;2.00;99.90
18779;DHT22;9518;51.720;14.384;2023-03-04T00:55:38;2.00;99.90
18779;DHT22;9518;51.720;14.384;2023-03-04T00:58:05;2.00;99.90
18779;DHT22;9518;51.720;14.384;2023-03-04T01:00:32;2.00;99.90
18779;DHT22;9518;51.720;14.384;2023-03-04T01:02:59;2.00;99.90
18779;DHT22;9518;51.720;14.384;2023-03-04T01:05:26;2.00;99.90
18779;DHT22;9518;51.720;14.384;2023-03-04T01:07:53;2.00;99.90
18779;DHT22;9518;51.720;14.384;2023-03-04T01:10:22;2.00;99.90
18779;DHT22;9518;51.720;14.384;2023-03-04T01:12:49;2.00;99.90
18779;DHT22;9518;51.720;14.384;2023-03-04T01:15:16;2.10;99.90
18779;DHT22;9518;51.720;14.384;2023-03-04T01:17:43;2.10;99.90
18779;DHT22;9518;51.720;14.384;2023-03-04T01:20:11;2.10;99.90
18779;DHT22;9518;51.720;14.384;2023-03-04T01:22:38;2.10;99.90
18779;DHT22;9518;51.720;14.384;2023-03-04T01:25:06;2.10;99.90
18779;DHT22;9518;51.720;14.384;2023-03-04T01:27:35;2.10;99.90
18779;DHT22;9518;51.720;14.384;2023-03-04T01:30:03;2.10;99.90
18779;DHT22;9518;51.720;14.384;2023-03-04T01:32:30;2.10;99.90
18779;DHT22;9518;51.720;14.384;2023-03-04T01:34:57;2.10;99.90
18779;DHT22;9518;51.720;14.384;2023-03-04T01:37:24;2.10;99.90
18779;DHT22;9518;51.720;14.384;2023-03-04T01:39:51;2.10;99.90
18779;DHT22;9518;51.720;14.384;2023-03-04T01:42:20;2.10;99.90
18779;DHT22;9518;51.720;14.384;2023-03-04T01:44:50;2.10;99.90
18779;DHT22;9518;51.720;14.384;2023-03-04T01:47:18;2.10;99.90
18779;DHT22;9518;51.720;14.384;2023-03-04T01:49:48;2.10;99.90
18779;DHT22;9518;51.720;14.384;2023-03-04T01:52:16;2.10;99.90
18779;DHT22;9518;51.720;14.384;2023-03-04T01:54:43;2.10;99.90
18779;DHT22;9518;51.720;14.384;2023-03-04T01:57:19;2.00;99.90
18779;DHT22;9518;51.720;14.384;2023-03-04T02:00:09;2.10;99.90
18779;DHT22;9518;51.720;14.384;2023-03-04T02:02:37;2.10;99.90
18779;DHT22;9518;51.720;14.384;2023-03-04T02:05:04;2.10;99.90
18779;DHT22;9518;51.720;14.384;2023-03-04T02:07:31;2.10;99.90
18779;DHT22;9518;51.720;14.384;2023-03-04T02:09:58;2.10;99.90
18779;DHT22;9518;51.720;14.384;2023-03-04T02:12:26;2.10;99.90
18779;DHT22;9518;51.720;14.384;2023-03-04T02:14:54;2.20;99.90
18779;DHT22;9518;51.720;14.384;2023-03-04T02:17:23;2.20;99.90
18779;DHT22;9518;51.720;14.384;2023-03-04T02:19:54;2.20;99.90
18779;DHT22;9518;51.720;14.384;2023-03-04T02:22:22;2.20;99.90
18779;DHT22;9518;51.720;14.384;2023-03-04T02:24:51;2.20;99.90
18779;DHT22;9518;51.720;14.384;2023-03-04T02:27:21;2.20;99.90
18779;DHT22;9518;51.720;14.384;2023-03-04T02:29:48;2.20;99.90
18779;DHT22;9518;51.720;14.384;2023-03-04T02:32:15;2.20;99.90
18779;DHT22;9518;51.720;14.384;2023-03-04T02:34:46;2.20;99.90
18779;DHT22;9518;51.720;14.384;2023-03-04T02:37:15;2.20;99.90
18779;DHT22;9518;51.720;14.384;2023-03-04T02:39:43;2.20;99.90
18779;DHT22;9518;51.720;14.384;2023-03-04T02:42:12;2.20;99.90
18779;DHT22;9518;51.720;14.384;2023-03-04T02:44:41;2.20;99.90
18779;DHT22;9518;51.720;14.384;2023-03-04T02:47:14;2.20;99.90
18779;DHT22;9518;51.720;14.384;2023-03-04T02:49:43;2.20;99.90
18779;DHT22;9518;51.720;14.384;2023-03-04T02:52:13;2.30;99.90
18779;DHT22;9518;51.720;14.384;2023-03-04T02:54:40;2.30;99.90
18779;DHT22;9518;51.720;14.384;2023-03-04T02:57:10;2.30;99.90
18779;DHT22;9518;51.720;14.384;2023-03-04T02:59:38;2.30;99.90
18779;DHT22;9518;51.720;14.384;2023-03-04T03:02:07;2.30;99.90
18779;DHT22;9518;51.720;14.384;2023-03-04T03:04:35;2.40;99.90
18779;DHT22;9518;51.720;14.384;2023-03-04T03:07:03;2.40;99.90
18779;DHT22;9518;51.720;14.384;2023-03-04T03:09:30;2.40;99.90
18779;DHT22;9518;51.720;14.384;2023-03-04T03:11:57;2.40;99.90
18779;DHT22;9518;51.720;14.384;2023-03-04T03:14:24;2.40;99.90
18779;DHT22;9518;51.720;14.384;2023-03-04T03:16:51;2.40;99.90
18779;DHT22;9518;51.720;14.384;2023-03-04T03:19:19;2.40;99.90
18779;DHT22;9518;51.720;14.384;2023-03-04T03:21:46;2.40;99.90
18779;DHT22;9518;51.720;14.384;2023-03-04T03:24:14;2.30;99.90
18779;DHT22;9518;51.720;14.384;2023-03-04T03:26:43;2.30;99.90
18779;DHT22;9518;51.720;14.384;2023-03-04T03:29:11;2.30;99.90
18779;DHT22;9518;51.720;14.384;2023-03-04T03:31:38;2.30;99.90
18779;DHT22;9518;51.720;14.384;2023-03-04T03:34:05;2.30;99.90
18779;DHT22;9518;51.720;14.384;2023-03-04T03:36:33;2.30;99.90
18779;DHT22;9518;51.720;14.384;2023-03-04T03:39:01;2.30;99.90
18779;DHT22;9518;51.720;14.384;2023-03-04T03:41:28;2.30;99.90
18779;DHT22;9518;51.720;14.384;2023-03-04T03:43:55;2.30;99.90
18779;DHT22;9518;51.720;14.384;2023-03-04T03:46:22;2.30;99.90
18779;DHT22;9518;51.720;14.384;2023-03-04T03:48:49;2.20;99.90
18779;DHT22;9518;51.720;14.384;2023-03-04T03:51:16;2.20;99.90
18779;DHT22;9518;51.720;14.384;2023-03-04T03:53:45;2.30;99.90
18779;DHT22;9518;51.720;14.384;2023-03-04T03:56:12;2.30;99.90
18779;DHT22;9518;51.720;14.384;2023-03-04T03:58:39;2.20;99.90
18779;DHT22;9518;51.720;14.384;2023-03-04T04:01:06;2.20;99.90
18779;DHT22;9518;51.720;14.384;2023-03-04T04:03:34;2.20;99.90
18779;DHT22;9518;51.720;14.384;2023-03-04T04:06:04;2.20;99.90
18779;DHT22;9518;51.720;14.384;2023-03-04T04:08:31;2.20;1.00
18779;DHT22;9518;51.720;14.384;2023-03-04T04:11:00;2.30;1.00
18779;DHT22;9518;51.720;14.384;2023-03-04T04:13:27;2.30;99.90
18779;DHT22;9518;51.720;14.384;2023-03-04T04:15:54;2.30;99.90
18779;DHT22;9518;51.720;14.384;2023-03-04T04:18:21;2.20;1.00
18779;DHT22;9518;51.720;14.384;2023-03-04T04:20:48;2.20;1.00
18779;DHT22;9518;51.720;14.384;2023-03-04T04:23:17;2.20;99.90
18779;DHT22;9518;51.720;14.384;2023-03-04T04:25:44;2.20;1.00
18779;DHT22;9518;51.720;14.384;2023-03-04T04:28:13;2.20;1.00
18779;DHT22;9518;51.720;14.384;2023-03-04T04:30:40;2.20;1.00
18779;DHT22;9518;51.720;14.384;2023-03-04T04:33:08;2.10;1.00
18779;DHT22;9518;51.720;14.384;2023-03-04T04:35:36;2.10;1.00
18779;DHT22;9518;51.720;14.384;2023-03-04T04:38:04;2.10;99.90
18779;DHT22;9518;51.720;14.384;2023-03-04T04:40:31;2.10;1.00
18779;DHT22;9518;51.720;14.384;2023-03-04T04:42:58;2.10;99.90
18779;DHT22;9518;51.720;14.384;2023-03-04T04:45:26;2.10;1.00
18779;DHT22;9518;51.720;14.384;2023-03-04T04:47:54;2.10;1.00
18779;DHT22;9518;51.720;14.384;2023-03-04T04:50:22;2.00;1.00
18779;DHT22;9518;51.720;14.384;2023-03-04T04:52:49;2.10;1.00
18779;DHT22;9518;51.720;14.384;2023-03-04T04:55:16;2.10;99.90
18779;DHT22;9518;51.720;14.384;2023-03-04T04:57:43;2.00;1.00
18779;DHT22;9518;51.720;14.384;2023-03-04T05:00:11;1.90;1.00
18779;DHT22;9518;51.720;14.384;2023-03-04T05:02:39;2.00;1.00
18779;DHT22;9518;51.720;14.384;2023-03-04T05:05:07;2.00;1.00
18779;DHT22;9518;51.720;14.384;2023-03-04T05:07:34;2.00;1.00
18779;DHT22;9518;51.720;14.384;2023-03-04T05:10:01;2.00;1.00
18779;DHT22;9518;51.720;14.384;2023-03-04T05:12:28;2.10;1.00
18779;DHT22;9518;51.720;14.384;2023-03-04T05:14:55;2.00;1.00
18779;DHT22;9518;51.720;14.384;2023-03-04T05:17:22;2.00;1.00
18779;DHT22;9518;51.720;14.384;2023-03-04T05:19:51;2.00;1.00
18779;DHT22;9518;51.720;14.384;2023-03-04T05:22:18;2.10;1.00
18779;DHT22;9518;51.720;14.384;2023-03-04T05:24:44;2.20;1.00
18779;DHT22;9518;51.720;14.384;2023-03-04T05:27:11;2.10;1.00
18779;DHT22;9518;51.720;14.384;2023-03-04T05:29:38;2.10;1.00
18779;DHT22;9518;51.720;14.384;2023-03-04T05:32:07;2.20;1.00
18779;DHT22;9518;51.720;14.384;2023-03-04T05:34:34;2.10;1.00
18779;DHT22;9518;51.720;14.384;2023-03-04T05:37:02;2.10;1.00
18779;DHT22;9518;51.720;14.384;2023-03-04T05:39:29;2.20;1.00
18779;DHT22;9518;51.720;14.384;2023-03-04T05:41:56;2.20;1.00
18779;DHT22;9518;51.720;14.384;2023-03-04T05:44:23;2.20;1.00
18779;DHT22;9518;51.720;14.384;2023-03-04T05:46:50;2.20;1.00
18779;DHT22;9518;51.720;14.384;2023-03-04T05:49:17;2.10;1.00
18779;DHT22;9518;51.720;14.384;2023-03-04T05:51:44;2.20;1.00
18779;DHT22;9518;51.720;14.384;2023-03-04T05:54:12;2.20;1.00
18779;DHT22;9518;51.720;14.384;2023-03-04T05:56:39;2.20;1.00
18779;DHT22;9518;51.720;14.384;2023-03-04T05:59:06;2.30;1.00
18779;DHT22;9518;51.720;14.384;2023-03-04T06:01:33;2.30;1.00
18779;DHT22;9518;51.720;14.384;2023-03-04T06:04:00;2.30;1.00
18779;DHT22;9518;51.720;14.384;2023-03-04T06:06:27;2.20;1.00
18779;DHT22;9518;51.720;14.384;2023-03-04T06:08:54;2.20;1.00
18779;DHT22;9518;51.720;14.384;2023-03-04T06:11:22;2.20;1.00
18779;DHT22;9518;51.720;14.384;2023-03-04T06:13:49;2.30;1.00
18779;DHT22;9518;51.720;14.384;2023-03-04T06:16:16;2.20;1.00
18779;DHT22;9518;51.720;14.384;2023-03-04T06:18:43;2.20;2.80
18779;DHT22;9518;51.720;14.384;2023-03-04T06:21:10;2.20;1.00
18779;DHT22;9518;51.720;14.384;2023-03-04T06:23:37;2.20;1.00
18779;DHT22;9518;51.720;14.384;2023-03-04T06:26:04;2.20;11.80
18779;DHT22;9518;51.720;14.384;2023-03-04T06:28:35;2.20;16.10
18779;DHT22;9518;51.720;14.384;2023-03-04T06:31:02;2.20;35.30
18779;DHT22;9518;51.720;14.384;2023-03-04T06:33:29;2.20;64.20
18779;DHT22;9518;51.720;14.384;2023-03-04T06:35:56;2.20;85.00
18779;DHT22;9518;51.720;14.384;2023-03-04T06:38:24;2.30;2.30
18779;DHT22;9518;51.720;14.384;2023-03-04T06:40:51;2.30;1.00
18779;DHT22;9518;51.720;14.384;2023-03-04T06:43:18;2.30;1.00
18779;DHT22;9518;51.720;14.384;2023-03-04T06:45:50;2.40;1.00
18779;DHT22;9518;51.720;14.384;2023-03-04T06:48:17;2.40;1.00
18779;DHT22;9518;51.720;14.384;2023-03-04T06:50:44;2.40;1.00
18779;DHT22;9518;51.720;14.384;2023-03-04T06:53:10;2.40;1.00
18779;DHT22;9518;51.720;14.384;2023-03-04T06:55:37;2.50;1.00
18779;DHT22;9518;51.720;14.384;2023-03-04T06:58:04;2.50;1.00
18779;DHT22;9518;51.720;14.384;2023-03-04T07:00:31;2.50;1.00
18779;DHT22;9518;51.720;14.384;2023-03-04T07:03:00;2.50;1.00
18779;DHT22;9518;51.720;14.384;2023-03-04T07:05:27;2.60;1.00
18779;DHT22;9518;51.720;14.384;2023-03-04T07:07:54;2.60;1.00
18779;DHT22;9518;51.720;14.384;2023-03-04T07:10:21;2.60;1.00
18779;DHT22;9518;51.720;14.384;2023-03-04T07:12:48;2.60;1.00
18779;DHT22;9518;51.720;14.384;2023-03-04T07:15:15;2.70;1.00
18779;DHT22;9518;51.720;14.384;2023-03-04T07:17:42;2.60;1.00
18779;DHT22;9518;51.720;14.384;2023-03-04T07:20:11;2.70;1.00
18779;DHT22;9518;51.720;14.384;2023-03-04T07:22:38;2.70;1.00
18779;DHT22;9518;51.720;14.384;2023-03-04T07:25:06;2.70;1.00
18779;DHT22;9518;51.720;14.384;2023-03-04T07:27:33;2.80;1.00
18779;DHT22;9518;51.720;14.384;2023-03-04T07:30:00;2.80;1.00
18779;DHT22;9518;51.720;14.384;2023-03-04T07:32:28;2.80;1.00
18779;DHT22;9518;51.720;14.384;2023-03-04T07:34:55;2.70;1.00
18779;DHT22;9518;51.720;14.384;2023-03-04T07:37:23;2.80;1.00
18779;DHT22;9518;51.720;14.384;2023-03-04T07:39:50;2.90;1.00
18779;DHT22;9518;51.720;14.384;2023-03-04T07:42:17;2.80;1.00
18779;DHT22;9518;51.720;14.384;2023-03-04T07:44:47;2.90;1.00
18779;DHT22;9518;51.720;14.384;2023-03-04T07:47:14;2.90;1.00
18779;DHT22;9518;51.720;14.384;2023-03-04T07:49:41;2.90;1.00
18779;DHT22;9518;51.720;14.384;2023-03-04T07:52:08;2.90;1.00
18779;DHT22;9518;51.720;14.384;2023-03-04T07:54:36;2.90;71.70
18779;DHT22;9518;51.720;14.384;2023-03-04T07:57:03;3.00;98.00
18779;DHT22;9518;51.720;14.384;2023-03-04T07:59:30;3.00;1.00
18779;DHT22;9518;51.720;14.384;2023-03-04T08:01:57;3.00;75.90
18779;DHT22;9518;51.720;14.384;2023-03-04T08:04:24;3.00;53.10
18779;DHT22;9518;51.720;14.384;2023-03-04T08:06:51;3.10;62.10
18779;DHT22;9518;51.720;14.384;2023-03-04T08:09:18;3.10;46.90
18779;DHT22;9518;51.720;14.384;2023-03-04T08:11:46;3.20;63.20
18779;DHT22;9518;51.720;14.384;2023-03-04T08:14:13;3.10;6.90
18779;DHT22;9518;51.720;14.384;2023-03-04T08:16:40;3.10;84.00
18779;DHT22;9518;51.720;14.384;2023-03-04T08:19:08;3.10;99.90
18779;DHT22;9518;51.720;14.384;2023-03-04T08:21:36;3.00;99.90
18779;DHT22;9518;51.720;14.384;2023-03-04T08:24:03;3.20;99.90
18779;DHT22;9518;51.720;14.384;2023-03-04T08:26:35;3.30;99.90
18779;DHT22;9518;51.720;14.384;2023-03-04T08:29:08;3.30;99.90
18779;DHT22;9518;51.720;14.384;2023-03-04T08:31:35;3.30;99.90
18779;DHT22;9518;51.720;14.384;2023-03-04T08:34:03;3.30;99.90
18779;DHT22;9518;51.720;14.384;2023-03-04T08:36:30;3.30;99.90
18779;DHT22;9518;51.720;14.384;2023-03-04T08:38:57;3.30;99.90
18779;DHT22;9518;51.720;14.384;2023-03-04T08:41:24;3.30;99.90
18779;DHT22;9518;51.720;14.384;2023-03-04T08:43:52;3.30;99.90
18779;DHT22;9518;51.720;14.384;2023-03-04T08:46:20;3.40;99.90
18779;DHT22;9518;51.720;14.384;2023-03-04T08:48:47;3.50;99.90
18779;DHT22;9518;51.720;14.384;2023-03-04T08:51:16;3.70;99.90
18779;DHT22;9518;51.720;14.384;2023-03-04T08:53:43;3.70;99.90
18779;DHT22;9518;51.720;14.384;2023-03-04T08:56:11;3.90;99.90
18779;DHT22;9518;51.720;14.384;2023-03-04T08:58:39;3.90;99.90
18779;DHT22;9518;51.720;14.384;2023-03-04T09:01:07;3.90;99.90
18779;DHT22;9518;51.720;14.384;2023-03-04T09:03:37;3.90;99.90
18779;DHT22;9518;51.720;14.384;2023-03-04T09:06:05;3.90;99.90
18779;DHT22;9518;51.720;14.384;2023-03-04T09:08:33;3.90;99.90
18779;DHT22;9518;51.720;14.384;2023-03-04T09:11:00;3.90;91.50
18779;DHT22;9518;51.720;14.384;2023-03-04T09:13:28;3.90;99.90
18779;DHT22;9518;51.720;14.384;2023-03-04T09:15:56;3.90;99.90
18779;DHT22;9518;51.720;14.384;2023-03-04T09:18:24;4.00;99.90
18779;DHT22;9518;51.720;14.384;2023-03-04T09:20:53;4.10;99.90
18779;DHT22;9518;51.720;14.384;2023-03-04T09:23:20;4.00;99.90
18779;DHT22;9518;51.720;14.384;2023-03-04T09:25:48;4.00;99.90
18779;DHT22;9518;51.720;14.384;2023-03-04T09:28:16;4.00;99.90
18779;DHT22;9518;51.720;14.384;2023-03-04T09:30:44;4.00;99.90
18779;DHT22;9518;51.720;14.384;2023-03-04T09:33:11;4.00;99.90
18779;DHT22;9518;51.720;14.384;2023-03-04T09:35:38;4.00;99.90
18779;DHT22;9518;51.720;14.384;2023-03-04T09:38:07;4.10;99.90
18779;DHT22;9518;51.720;14.384;2023-03-04T09:40:38;4.20;99.90
18779;DHT22;9518;51.720;14.384;2023-03-04T09:43:11;4.20;99.90
18779;DHT22;9518;51.720;14.384;2023-03-04T09:45:44;4.20;99.90
18779;DHT22;9518;51.720;14.384;2023-03-04T09:48:16;4.20;99.90
18779;DHT22;9518;51.720;14.384;2023-03-04T09:50:50;4.30;99.90
18779;DHT22;9518;51.720;14.384;2023-03-04T09:53:30;4.30;99.90
18779;DHT22;9518;51.720;14.384;2023-03-04T09:55:59;4.40;99.90
18779;DHT22;9518;51.720;14.384;2023-03-04T09:58:38;4.50;99.90
18779;DHT22;9518;51.720;14.384;2023-03-04T10:01:16;4.50;99.90
18779;DHT22;9518;51.720;14.384;2023-03-04T10:03:46;4.50;99.90
18779;DHT22;9518;51.720;14.384;2023-03-04T10:06:16;4.40;99.90
18779;DHT22;9518;51.720;14.384;2023-03-04T10:08:51;4.40;99.90
18779;DHT22;9518;51.720;14.384;2023-03-04T10:11:24;4.50;99.90
18779;DHT22;9518;51.720;14.384;2023-03-04T10:14:10;4.60;99.90
18779;DHT22;9518;51.720;14.384;2023-03-04T10:16:45;4.90;99.90
18779;DHT22;9518;51.720;14.384;2023-03-04T10:19:30;5.10;99.90
18779;DHT22;9518;51.720;14.384;2023-03-04T10:22:01;5.20;99.90
18779;DHT22;9518;51.720;14.384;2023-03-04T10:24:40;5.40;99.90
18779;DHT22;9518;51.720;14.384;2023-03-04T10:27:13;5.50;99.90
18779;DHT22;9518;51.720;14.384;2023-03-04T10:29:41;5.50;99.90
18779;DHT22;9518;51.720;14.384;2023-03-04T10:32:11;5.60;99.90
18779;DHT22;9518;51.720;14.384;2023-03-04T10:34:39;5.70;99.90
18779;DHT22;9518;51.720;14.384;2023-03-04T10:37:06;5.90;99.90
18779;DHT22;9518;51.720;14.384;2023-03-04T10:39:40;5.70;99.90
18779;DHT22;9518;51.720;14.384;2023-03-04T10:42:23;5.80;99.90
18779;DHT22;9518;51.720;14.384;2023-03-04T10:44:54;6.00;99.90
18779;DHT22;9518;51.720;14.384;2023-03-04T10:47:23;5.90;99.90
18779;DHT22;9518;51.720;14.384;2023-03-04T10:49:51;6.10;99.90
18779;DHT22;9518;51.720;14.384;2023-03-04T10:52:26;6.00;1.00
18779;DHT22;9518;51.720;14.384;2023-03-04T10:54:57;5.60;1.00
18779;DHT22;9518;51.720;14.384;2023-03-04T10:57:32;5.30;99.90
18779;DHT22;9518;51.720;14.384;2023-03-04T11:00:00;5.10;99.90
18779;DHT22;9518;51.720;14.384;2023-03-04T11:02:28;5.20;99.90
18779;DHT22;9518;51.720;14.384;2023-03-04T11:05:05;5.10;99.90
18779;DHT22;9518;51.720;14.384;2023-03-04T11:07:38;5.30;99.90
18779;DHT22;9518;51.720;14.384;2023-03-04T11:10:13;5.50;99.90
18779;DHT22;9518;51.720;14.384;2023-03-04T11:12:47;5.50;99.90
18779;DHT22;9518;51.720;14.384;2023-03-04T11:15:20;5.50;99.90
18779;DHT22;9518;51.720;14.384;2023-03-04T11:17:54;5.60;99.90
18779;DHT22;9518;51.720;14.384;2023-03-04T11:20:29;5.60;99.90
18779;DHT22;9518;51.720;14.384;2023-03-04T11:23:00;5.60;99.90
18779;DHT22;9518;51.720;14.384;2023-03-04T11:25:32;5.80;99.90
18779;DHT22;9518;51.720;14.384;2023-03-04T11:28:05;5.80;1.00
18779;DHT22;9518;51.720;14.384;2023-03-04T11:30:38;5.90;1.00
18779;DHT22;9518;51.720;14.384;2023-03-04T11:33:22;6.00;99.90
18779;DHT22;9518;51.720;14.384;2023-03-04T11:35:55;6.20;1.00
18779;DHT22;9518;51.720;14.384;2023-03-04T11:38:30;6.20;1.00
18779;DHT22;9518;51.720;14.384;2023-03-04T11:41:02;6.20;1.00
18779;DHT22;9518;51.720;14.384;2023-03-04T11:43:35;6.30;1.00
18779;DHT22;9518;51.720;14.384;2023-03-04T11:49:15;6.40;1.00
18779;DHT22;9518;51.720;14.384;2023-03-04T11:51:49;6.30;99.90
18779;DHT22;9518;51.720;14.384;2023-03-04T11:54:26;6.30;99.90
18779;DHT22;9518;51.720;14.384;2023-03-04T11:56:58;6.30;99.90
18779;DHT22;9518;51.720;14.384;2023-03-04T11:59:44;6.30;99.90
18779;DHT22;9518;51.720;14.384;2023-03-04T12:02:16;6.10;99.90
18779;DHT22;9518;51.720;14.384;2023-03-04T12:05:13;6.10;1.00
18779;DHT22;9518;51.720;14.384;2023-03-04T12:10:37;6.70;99.90
18779;DHT22;9518;51.720;14.384;2023-03-04T12:13:41;6.90;72.60
18779;DHT22;9518;51.720;14.384;2023-03-04T12:16:24;7.00;39.30
18779;DHT22;9518;51.720;14.384;2023-03-04T12:19:15;7.00;74.80
18779;DHT22;9518;51.720;14.384;2023-03-04T12:22:02;6.90;1.00
18779;DHT22;9518;51.720;14.384;2023-03-04T12:24:45;6.70;1.00
18779;DHT22;9518;51.720;14.384;2023-03-04T12:27:21;6.60;1.00
18779;DHT22;9518;51.720;14.384;2023-03-04T12:29:56;6.80;1.00
18779;DHT22;9518;51.720;14.384;2023-03-04T12:32:34;6.90;1.00
18779;DHT22;9518;51.720;14.384;2023-03-04T12:35:25;7.00;1.00
18779;DHT22;9518;51.720;14.384;2023-03-04T12:38:25;7.10;1.00
18779;DHT22;9518;51.720;14.384;2023-03-04T12:41:05;7.00;1.00
18779;DHT22;9518;51.720;14.384;2023-03-04T12:43:52;6.80;1.00
18779;DHT22;9518;51.720;14.384;2023-03-04T12:46:31;6.60;1.00
18779;DHT22;9518;51.720;14.384;2023-03-04T12:49:22;6.50;1.00
18779;DHT22;9518;51.720;14.384;2023-03-04T12:51:56;6.50;1.00
18779;DHT22;9518;51.720;14.384;2023-03-04T12:54:29;6.50;1.00
18779;DHT22;9518;51.720;14.384;2023-03-04T12:56:59;6.60;1.00
18779;DHT22;9518;51.720;14.384;2023-03-04T12:59:33;6.50;1.00
18779;DHT22;9518;51.720;14.384;2023-03-04T13:02:20;6.60;1.00
18779;DHT22;9518;51.720;14.384;2023-03-04T13:04:56;6.60;1.00
18779;DHT22;9518;51.720;14.384;2023-03-04T13:07:35;6.70;1.00
18779;DHT22;9518;51.720;14.384;2023-03-04T13:10:07;6.80;1.00
18779;DHT22;9518;51.720;14.384;2023-03-04T13:12:46;7.10;1.00
18779;DHT22;9518;51.720;14.384;2023-03-04T13:15:31;6.70;1.00
18779;DHT22;9518;51.720;14.384;2023-03-04T13:18:00;6.60;1.00
18779;DHT22;9518;51.720;14.384;2023-03-04T13:20:37;6.60;1.00
18779;DHT22;9518;51.720;14.384;2023-03-04T13:23:28;6.60;1.00
18779;DHT22;9518;51.720;14.384;2023-03-04T13:26:27;6.80;1.00
18779;DHT22;9518;51.720;14.384;2023-03-04T13:29:19;6.80;1.00
18779;DHT22;9518;51.720;14.384;2023-03-04T13:31:57;6.90;1.00
18779;DHT22;9518;51.720;14.384;2023-03-04T13:34:48;6.90;1.00
18779;DHT22;9518;51.720;14.384;2023-03-04T13:37:56;7.00;99.90
18779;DHT22;9518;51.720;14.384;2023-03-04T13:40:34;7.00;99.90
18779;DHT22;9518;51.720;14.384;2023-03-04T13:43:24;7.00;99.90
18779;DHT22;9518;51.720;14.384;2023-03-04T13:45:51;7.00;99.90
18779;DHT22;9518;51.720;14.384;2023-03-04T13:48:31;7.00;99.90
18779;DHT22;9518;51.720;14.384;2023-03-04T13:51:01;7.10;99.90
18779;DHT22;9518;51.720;14.384;2023-03-04T13:53:45;7.10;99.90
18779;DHT22;9518;51.720;14.384;2023-03-04T13:56:26;6.90;99.90
18779;DHT22;9518;51.720;14.384;2023-03-04T13:59:20;6.70;99.90
18779;DHT22;9518;51.720;14.384;2023-03-04T14:01:53;6.60;99.90
18779;DHT22;9518;51.720;14.384;2023-03-04T14:04:22;6.60;99.90
18779;DHT22;9518;51.720;14.384;2023-03-04T14:06:53;6.50;99.90
18779;DHT22;9518;51.720;14.384;2023-03-04T14:09:25;6.50;99.90
18779;DHT22;9518;51.720;14.384;2023-03-04T14:11:55;6.50;99.90
18779;DHT22;9518;51.720;14.384;2023-03-04T14:14:25;6.60;99.90
18779;DHT22;9518;51.720;14.384;2023-03-04T14:16:55;6.60;99.90
18779;DHT22;9518;51.720;14.384;2023-03-04T14:19:26;6.70;99.90
18779;DHT22;9518;51.720;14.384;2023-03-04T14:21:55;6.60;99.90
18779;DHT22;9518;51.720;14.384;2023-03-04T14:24:24;6.60;71.60
18779;DHT22;9518;51.720;14.384;2023-03-04T14:27:08;6.50;56.90
18779;DHT22;9518;51.720;14.384;2023-03-04T14:29:36;6.50;53.70
18779;DHT22;9518;51.720;14.384;2023-03-04T14:32:04;6.50;56.10
18779;DHT22;9518;51.720;14.384;2023-03-04T14:34:34;6.50;56.60
18779;DHT22;9518;51.720;14.384;2023-03-04T14:37:02;6.50;70.30
18779;DHT22;9518;51.720;14.384;2023-03-04T14:39:33;6.50;91.10
18779;DHT22;9518;51.720;14.384;2023-03-04T14:42:06;6.40;60.00
18779;DHT22;9518;51.720;14.384;2023-03-04T14:44:36;6.30;69.30
18779;DHT22;9518;51.720;14.384;2023-03-04T14:47:11;6.30;99.90
18779;DHT22;9518;51.720;14.384;2023-03-04T14:49:43;6.30;99.90
18779;DHT22;9518;51.720;14.384;2023-03-04T14:52:34;6.30;99.90
18779;DHT22;9518;51.720;14.384;2023-03-04T14:55:17;6.30;95.60
18779;DHT22;9518;51.720;14.384;2023-03-04T14:57:47;6.20;99.90
18779;DHT22;9518;51.720;14.384;2023-03-04T15:00:27;6.20;99.90
18779;DHT22;9518;51.720;14.384;2023-03-04T15:02:57;6.10;99.90
18779;DHT22;9518;51.720;14.384;2023-03-04T15:05:26;6.10;99.90
18779;DHT22;9518;51.720;14.384;2023-03-04T15:07:55;6.20;99.90
18779;DHT22;9518;51.720;14.384;2023-03-04T15:10:27;6.10;99.90
18779;DHT22;9518;51.720;14.384;2023-03-04T15:12:56;6.10;99.90
18779;DHT22;9518;51.720;14.384;2023-03-04T15:15:38;6.10;99.90
18779;DHT22;9518;51.720;14.384;2023-03-04T15:18:22;6.10;99.90
18779;DHT22;9518;51.720;14.384;2023-03-04T15:20:55;6.10;99.90
18779;DHT22;9518;51.720;14.384;2023-03-04T15:23:23;6.00;99.90
18779;DHT22;9518;51.720;14.384;2023-03-04T15:25:53;6.10;99.90
18779;DHT22;9518;51.720;14.384;2023-03-04T15:28:21;6.10;99.90
18779;DHT22;9518;51.720;14.384;2023-03-04T15:30:48;6.10;99.90
18779;DHT22;9518;51.720;14.384;2023-03-04T15:33:15;6.10;99.90
18779;DHT22;9518;51.720;14.384;2023-03-04T15:35:48;6.10;99.90
18779;DHT22;9518;51.720;14.384;2023-03-04T15:38:17;6.10;99.90
18779;DHT22;9518;51.720;14.384;2023-03-04T15:40:45;6.10;99.90
18779;DHT22;9518;51.720;14.384;2023-03-04T15:43:15;6.10;99.90
18779;DHT22;9518;51.720;14.384;2023-03-04T15:45:43;6.00;99.90
18779;DHT22;9518;51.720;14.384;2023-03-04T15:48:12;6.00;99.90
18779;DHT22;9518;51.720;14.384;2023-03-04T15:50:42;6.00;99.90
18779;DHT22;9518;51.720;14.384;2023-03-04T15:53:14;5.90;1.00
18779;DHT22;9518;51.720;14.384;2023-03-04T15:55:44;5.80;1.00
18779;DHT22;9518;51.720;14.384;2023-03-04T15:58:13;5.70;1.00
18779;DHT22;9518;51.720;14.384;2023-03-04T16:00:41;5.70;1.00
18779;DHT22;9518;51.720;14.384;2023-03-04T16:03:15;5.70;1.00
18779;DHT22;9518;51.720;14.384;2023-03-04T16:05:44;5.60;1.00
18779;DHT22;9518;51.720;14.384;2023-03-04T16:08:13;5.60;1.00
18779;DHT22;9518;51.720;14.384;2023-03-04T16:10:41;5.50;1.00
18779;DHT22;9518;51.720;14.384;2023-03-04T16:13:13;5.50;1.00
18779;DHT22;9518;51.720;14.384;2023-03-04T16:15:41;5.40;1.00
18779;DHT22;9518;51.720;14.384;2023-03-04T16:18:09;5.40;1.00
18779;DHT22;9518;51.720;14.384;2023-03-04T16:20:37;5.40;1.00